createdAt,value
2022-12-11T00:01:57.795Z,100953.47
2022-12-11T00:05:02.428Z,100955.22
2022-12-11T00:08:07.081Z,100950.91
2022-12-11T00:11:16.660Z,100944.03
2022-12-11T00:14:21.071Z,100940.59
2022-12-11T00:17:25.675Z,100932.84
2022-12-11T00:20:30.071Z,100923.41
2022-12-11T00:23:35.911Z,100922.56
2022-12-11T00:26:40.193Z,100923.41
2022-12-11T00:29:44.598Z,100910.53
2022-12-11T00:32:51.781Z,100912.22
2022-12-11T00:35:56.239Z,100913.13
2022-12-11T00:39:03.837Z,100913.09
2022-12-11T00:42:09.368Z,100913.97
2022-12-11T00:45:13.814Z,100910.50
2022-12-11T00:48:18.304Z,100903.66
2022-12-11T00:51:22.516Z,100906.22
2022-12-11T00:54:26.978Z,100907.06
2022-12-11T00:57:31.382Z,100909.69
2022-12-11T01:00:36.230Z,100910.53
2022-12-11T01:03:40.566Z,100906.22
2022-12-11T01:06:44.621Z,100911.38
2022-12-11T01:10:07.365Z,100913.94
2022-12-11T01:13:12.403Z,100906.22
2022-12-11T01:16:17.107Z,100904.50
2022-12-11T01:19:22.134Z,100908.81
2022-12-11T01:22:26.334Z,100918.25
2022-12-11T01:25:30.629Z,100910.50
2022-12-11T01:28:34.961Z,100907.94
2022-12-11T01:31:39.438Z,100909.66
2022-12-11T01:34:43.747Z,100907.94
2022-12-11T01:37:49.218Z,100913.09
2022-12-11T01:40:53.623Z,100920.84
2022-12-11T01:44:27.332Z,100923.41
2022-12-11T01:47:32.161Z,100923.41
2022-12-11T01:50:54.656Z,100925.97
2022-12-11T01:54:09.213Z,100928.56
2022-12-11T01:57:15.459Z,100921.69
2022-12-11T02:00:21.321Z,100923.41
2022-12-11T02:03:26.166Z,100926.84
2022-12-11T02:06:49.267Z,100923.41
2022-12-11T02:09:54.398Z,100928.56
2022-12-11T02:13:07.687Z,100931.16
2022-12-11T02:16:47.056Z,100926.84
2022-12-11T02:20:28.123Z,100923.41
2022-12-11T02:23:51.532Z,100910.50
2022-12-11T02:27:18.719Z,100911.38
2022-12-11T02:30:23.975Z,100921.69
2022-12-11T02:34:01.149Z,100912.22
2022-12-11T02:37:12.243Z,100910.53
2022-12-11T02:40:23.005Z,100916.53
2022-12-11T02:43:30.708Z,100906.25
2022-12-11T02:46:36.894Z,100903.66
2022-12-11T02:49:44.677Z,100897.63
2022-12-11T02:52:54.150Z,100894.19
2022-12-11T02:56:13.963Z,100894.22
2022-12-11T02:59:29.116Z,100894.19
2022-12-11T03:02:33.504Z,100891.63
2022-12-11T03:05:38.078Z,100888.19
2022-12-11T03:08:42.735Z,100892.47
2022-12-11T03:11:47.382Z,100908.78
2022-12-11T03:14:52.089Z,100902.78
2022-12-11T03:18:27.264Z,100896.78
2022-12-11T03:22:12.772Z,100887.31
2022-12-11T03:25:25.954Z,100892.50
2022-12-11T03:28:37.493Z,100892.50
2022-12-11T03:32:09.857Z,100895.91
2022-12-11T03:35:48.570Z,100877.03
2022-12-11T03:39:30.162Z,100873.56
2022-12-11T03:42:36.707Z,100867.56
2022-12-11T03:45:42.724Z,100868.44
2022-12-11T03:48:49.550Z,100862.41
2022-12-11T03:51:56.858Z,100874.44
2022-12-11T03:55:05.054Z,100875.31
2022-12-11T03:58:09.728Z,100877.88
2022-12-11T04:01:14.283Z,100873.59
2022-12-11T04:04:19.315Z,100878.75
2022-12-11T04:07:23.917Z,100883.88
2022-12-11T04:10:28.543Z,100887.34
2022-12-11T04:13:32.904Z,100889.91
2022-12-11T04:16:37.541Z,100894.22
2022-12-11T04:20:00.388Z,100903.63
2022-12-11T04:23:32.301Z,100900.19
2022-12-11T04:26:36.912Z,100904.50
2022-12-11T04:29:41.392Z,100908.81
2022-12-11T04:32:45.857Z,100902.81
2022-12-11T04:35:50.219Z,100910.53
2022-12-11T04:38:54.569Z,100915.69
2022-12-11T04:41:58.911Z,100912.25
2022-12-11T04:45:05.243Z,100913.09
2022-12-11T04:48:09.855Z,100907.94
2022-12-11T04:51:15.587Z,100904.50
2022-12-11T04:54:19.630Z,100900.22
2022-12-11T04:57:24.503Z,100900.22
2022-12-11T05:00:28.775Z,100897.63
2022-12-11T05:03:33.255Z,100901.06
2022-12-11T05:06:37.588Z,100901.06
2022-12-11T05:09:41.715Z,100892.50
2022-12-11T05:12:46.224Z,100888.19
2022-12-11T05:15:50.725Z,100884.75
2022-12-11T05:18:55.593Z,100873.59
2022-12-11T05:21:59.931Z,100878.75
2022-12-11T05:25:06.083Z,100881.31
2022-12-11T05:28:10.491Z,100881.31
2022-12-11T05:31:21.292Z,100881.31
2022-12-11T05:34:25.926Z,100879.59
2022-12-11T05:37:30.085Z,100871.00
2022-12-11T05:40:34.528Z,100882.16
2022-12-11T05:43:39.567Z,100875.31
2022-12-11T05:46:44.092Z,100876.16
2022-12-11T05:49:48.234Z,100881.31
2022-12-11T05:52:52.332Z,100889.03
2022-12-11T05:56:07.123Z,100885.63
2022-12-11T05:59:11.428Z,100875.31
2022-12-11T06:02:15.633Z,100868.41
2022-12-11T06:05:20.134Z,100871.00
2022-12-11T06:08:24.404Z,100867.56
2022-12-11T06:11:33.776Z,100863.28
2022-12-11T06:14:38.594Z,100858.94
2022-12-11T06:17:43.269Z,100863.25
2022-12-11T06:20:47.591Z,100863.28
2022-12-11T06:23:54.296Z,100858.94
2022-12-11T06:26:59.256Z,100862.38
2022-12-11T06:30:04.492Z,100877.00
2022-12-11T06:33:08.838Z,100880.44
2022-12-11T06:36:19.349Z,100869.25
2022-12-11T06:39:23.652Z,100870.97
2022-12-11T06:42:30.871Z,100870.13
2022-12-11T06:45:37.132Z,100870.94
2022-12-11T06:48:42.909Z,100874.41
2022-12-11T06:51:47.851Z,100876.09
2022-12-11T06:54:52.433Z,100870.94
2022-12-11T06:57:56.738Z,100862.38
2022-12-11T07:01:02.129Z,100866.69
2022-12-11T07:04:06.736Z,100863.22
2022-12-11T07:07:11.461Z,100875.22
2022-12-11T07:10:15.997Z,100867.50
2022-12-11T07:13:20.354Z,100861.47
2022-12-11T07:16:24.995Z,100863.16
2022-12-11T07:19:29.634Z,100875.22
2022-12-11T07:22:34.044Z,100872.56
2022-12-11T07:25:38.416Z,100871.72
2022-12-11T07:28:43.564Z,100874.28
2022-12-11T07:31:48.284Z,100880.22
2022-12-11T07:34:52.688Z,100875.06
2022-12-11T07:37:57.698Z,100877.63
2022-12-11T07:41:07.955Z,100887.06
2022-12-11T07:44:12.656Z,100893.00
2022-12-11T07:47:17.379Z,100899.00
2022-12-11T07:50:21.617Z,100898.97
2022-12-11T07:53:25.857Z,100905.84
2022-12-11T07:56:32.358Z,100909.28
2022-12-11T07:59:36.574Z,100906.69
2022-12-11T08:02:41.033Z,100910.97
2022-12-11T08:05:51.905Z,100911.84
2022-12-11T08:08:58.024Z,100915.22
2022-12-11T08:12:02.711Z,100932.38
2022-12-11T08:15:08.060Z,100927.19
2022-12-11T08:18:12.520Z,100938.34
2022-12-11T08:21:26.131Z,100932.41
2022-12-11T08:24:30.257Z,100932.44
2022-12-11T08:27:34.636Z,100924.72
2022-12-11T08:30:40.459Z,100924.75
2022-12-11T08:33:45.743Z,100925.63
2022-12-11T08:36:50.193Z,100913.53
2022-12-11T08:39:54.594Z,100921.22
2022-12-11T08:42:58.700Z,100918.66
2022-12-11T08:46:03.135Z,100914.38
2022-12-11T08:49:07.691Z,100921.22
2022-12-11T08:52:12.297Z,100922.13
2022-12-11T08:55:16.795Z,100924.66
2022-12-11T08:58:20.937Z,100915.25
2022-12-11T09:01:27.526Z,100916.16
2022-12-11T09:04:32.413Z,100916.16
2022-12-11T09:07:39.280Z,100918.69
2022-12-11T09:10:43.988Z,100913.56
2022-12-11T09:13:48.615Z,100911.84
2022-12-11T09:16:52.632Z,100906.72
2022-12-11T09:19:56.702Z,100911.88
2022-12-11T09:23:01.668Z,100915.22
2022-12-11T09:26:08.069Z,100910.97
2022-12-11T09:29:13.446Z,100912.72
2022-12-11T09:32:17.891Z,100913.56
2022-12-11T09:35:22.576Z,100908.44
2022-12-11T09:38:27.693Z,100911.91
2022-12-11T09:41:59.910Z,100901.66
2022-12-11T09:45:07.139Z,100903.38
2022-12-11T09:48:17.779Z,100899.09
2022-12-11T09:51:29.941Z,100899.09
2022-12-11T09:54:35.291Z,100898.25
2022-12-11T09:58:06.521Z,100888.84
2022-12-11T10:01:34.781Z,100894.03
2022-12-11T10:04:53.180Z,100885.50
2022-12-11T10:08:38.205Z,100886.38
2022-12-11T10:11:57.063Z,100873.53
2022-12-11T10:15:33.589Z,100857.25
2022-12-11T10:18:38.722Z,100857.28
2022-12-11T10:21:43.868Z,100870.13
2022-12-11T10:25:11.091Z,100870.97
2022-12-11T10:28:32.079Z,100858.94
2022-12-11T10:31:58.731Z,100854.66
2022-12-11T10:35:06.634Z,100852.91
2022-12-11T10:38:16.889Z,100852.03
2022-12-11T10:41:33.710Z,100834.81
2022-12-11T10:44:38.401Z,100827.06
2022-12-11T10:47:42.937Z,100831.28
2022-12-11T10:51:05.859Z,100827.69
2022-12-11T10:54:35.583Z,100825.16
2022-12-11T10:57:39.992Z,100815.75
2022-12-11T11:00:44.500Z,100819.81
2022-12-11T11:04:06.966Z,100817.94
2022-12-11T11:07:18.899Z,100809.25
2022-12-11T11:10:23.436Z,100799.78
2022-12-11T11:13:31.270Z,100798.97
2022-12-11T11:16:39.178Z,100797.28
2022-12-11T11:19:48.123Z,100788.81
2022-12-11T11:23:00.553Z,100779.44
2022-12-11T11:26:09.328Z,100772.69
2022-12-11T11:29:34.455Z,100778.81
2022-12-11T11:32:41.387Z,100774.50
2022-12-11T11:36:24.338Z,100773.69
2022-12-11T11:39:36.041Z,100772.00
2022-12-11T11:43:03.630Z,100775.41
2022-12-11T11:46:17.813Z,100778.72
2022-12-11T11:49:49.583Z,100769.22
2022-12-11T11:53:19.308Z,100770.09
2022-12-11T11:56:31.573Z,100770.06
2022-12-11T11:59:44.617Z,100772.66
2022-12-11T12:03:08.686Z,100775.28
2022-12-11T12:06:27.851Z,100774.44
2022-12-11T12:10:10.711Z,100777.91
2022-12-11T12:17:09.125Z,100777.97
2022-12-11T12:20:21.079Z,100775.31
2022-12-11T12:24:04.043Z,100763.34
2022-12-11T12:31:20.281Z,100775.44
2022-12-11T12:34:42.546Z,100768.53
2022-12-11T12:37:57.322Z,100775.41
2022-12-11T12:41:14.134Z,100779.72
2022-12-11T12:44:22.251Z,100772.03
2022-12-11T12:47:31.327Z,100775.44
2022-12-11T12:50:45.678Z,100777.16
2022-12-11T12:54:01.551Z,100782.31
2022-12-11T12:57:06.732Z,100781.47
2022-12-11T13:00:13.390Z,100787.47
2022-12-11T13:03:26.947Z,100790.06
2022-12-11T13:06:40.057Z,100779.75
2022-12-11T13:10:09.035Z,100778.88
2022-12-11T13:13:40.620Z,100778.94
2022-12-11T13:16:48.984Z,100778.06
2022-12-11T13:20:20.542Z,100778.94
2022-12-11T13:23:35.203Z,100784.09
2022-12-11T13:26:40.414Z,100784.13
2022-12-11T13:29:44.874Z,100790.13
2022-12-11T13:33:15.703Z,100797.84
2022-12-11T13:36:24.283Z,100804.75
2022-12-11T13:39:39.392Z,100815.91
2022-12-11T13:43:01.776Z,100798.78
2022-12-11T13:46:12.171Z,100806.50
2022-12-11T13:49:37.504Z,100809.94
2022-12-11T13:52:52.407Z,100818.53
2022-12-11T13:56:13.804Z,100823.66
2022-12-11T13:59:26.094Z,100817.66
2022-12-11T14:02:42.622Z,100827.13
2022-12-11T14:05:47.685Z,100837.47
2022-12-11T14:08:56.388Z,100832.31
2022-12-11T14:12:03.987Z,100828.88
2022-12-11T14:15:15.075Z,100828.03
2022-12-11T14:18:24.678Z,100836.66
2022-12-11T14:21:29.394Z,100839.19
2022-12-11T14:24:33.618Z,100844.38
2022-12-11T14:27:50.069Z,100844.38
2022-12-11T14:31:01.111Z,100841.81
2022-12-11T14:34:17.646Z,100847.81
2022-12-11T14:37:23.847Z,100842.69
2022-12-11T14:40:37.152Z,100841.78
2022-12-11T14:43:51.675Z,100840.94
2022-12-11T14:47:15.600Z,100843.50
2022-12-11T14:50:28.113Z,100839.22
2022-12-11T14:53:45.014Z,100828.94
2022-12-11T14:56:49.296Z,100828.09
2022-12-11T14:59:55.085Z,100832.34
2022-12-11T15:03:23.017Z,100836.66
2022-12-11T15:06:43.000Z,100826.34
2022-12-11T15:09:47.725Z,100835.81
2022-12-11T15:12:56.372Z,100837.50
2022-12-11T15:16:01.632Z,100844.38
2022-12-11T15:19:06.250Z,100854.66
2022-12-11T15:22:15.926Z,100844.34
2022-12-11T15:25:27.481Z,100860.69
2022-12-11T15:28:39.757Z,100863.25
2022-12-11T15:31:44.268Z,100868.44
2022-12-11T15:34:56.222Z,100864.16
2022-12-11T15:38:00.720Z,100869.31
2022-12-11T15:41:06.124Z,100865.84
2022-12-11T15:44:21.526Z,100862.41
2022-12-11T15:47:30.313Z,100860.66
2022-12-11T15:50:36.813Z,100855.50
2022-12-11T15:53:41.554Z,100867.53
2022-12-11T15:56:46.915Z,100870.09
2022-12-11T15:59:54.184Z,100866.69
2022-12-11T16:02:58.962Z,100862.34
2022-12-11T16:06:03.765Z,100871.78
2022-12-11T16:09:08.225Z,100858.06
2022-12-11T16:12:14.345Z,100864.09
2022-12-11T16:15:23.638Z,100866.66
2022-12-11T16:18:28.674Z,100861.47
2022-12-11T16:21:32.935Z,100864.91
2022-12-11T16:24:37.873Z,100864.91
2022-12-11T16:27:42.386Z,100861.47
2022-12-11T16:30:47.617Z,100861.47
2022-12-11T16:33:52.730Z,100859.72
2022-12-11T16:37:00.975Z,100873.44
2022-12-11T16:40:06.745Z,100858.84
2022-12-11T16:43:11.293Z,100865.72
2022-12-11T16:46:23.404Z,100866.59
2022-12-11T16:49:28.033Z,100867.44
2022-12-11T16:52:33.353Z,100867.41
2022-12-11T16:55:39.815Z,100864.81
2022-12-11T16:58:44.321Z,100873.38
2022-12-11T17:01:50.670Z,100883.69
2022-12-11T17:04:55.481Z,100872.50
2022-12-11T17:08:00.064Z,100878.44
2022-12-11T17:11:07.114Z,100883.63
2022-12-11T17:14:12.545Z,100879.28
2022-12-11T17:17:17.137Z,100884.41
2022-12-11T17:20:21.244Z,100893.00
2022-12-11T17:23:26.288Z,100888.69
2022-12-11T17:26:31.462Z,100892.13
2022-12-11T17:29:36.276Z,100895.56
2022-12-11T17:32:40.827Z,100894.69
2022-12-11T17:35:46.157Z,100895.47
2022-12-11T17:38:50.465Z,100890.31
2022-12-11T17:41:54.688Z,100886.84
2022-12-11T17:44:59.417Z,100891.06
2022-12-11T17:48:04.035Z,100892.00
2022-12-11T17:51:11.645Z,100888.56
2022-12-11T17:54:16.446Z,100882.50
2022-12-11T17:57:21.007Z,100887.63
2022-12-11T18:00:31.561Z,100888.50
2022-12-11T18:03:38.117Z,100881.72
2022-12-11T18:06:42.887Z,100890.28
2022-12-11T18:09:48.902Z,100882.53
2022-12-11T18:12:53.484Z,100875.66
2022-12-11T18:16:21.249Z,100888.44
2022-12-11T18:19:27.099Z,100886.69
2022-12-11T18:22:31.860Z,100886.69
2022-12-11T18:25:36.545Z,100885.78
2022-12-11T18:28:42.474Z,100890.88
2022-12-11T18:31:46.892Z,100890.00
2022-12-11T18:34:51.118Z,100891.75
2022-12-11T18:37:55.871Z,100891.72
2022-12-11T18:41:09.840Z,100893.47
2022-12-11T18:44:14.105Z,100892.59
2022-12-11T18:47:18.667Z,100903.72
2022-12-11T18:50:23.315Z,100890.91
2022-12-11T18:53:27.744Z,100891.75
2022-12-11T18:56:32.236Z,100902.03
2022-12-11T18:59:37.271Z,100903.72
2022-12-11T19:02:41.577Z,100896.91
2022-12-11T19:05:46.178Z,100899.47
2022-12-11T19:08:51.576Z,100891.75
2022-12-11T19:11:56.186Z,100896.88
2022-12-11T19:15:00.639Z,100900.31
2022-12-11T19:18:05.126Z,100897.75
2022-12-11T19:21:12.697Z,100904.66
2022-12-11T19:24:21.220Z,100910.66
2022-12-11T19:27:25.997Z,100917.56
2022-12-11T19:30:30.552Z,100915.06
2022-12-11T19:33:35.131Z,100921.13
2022-12-11T19:36:39.665Z,100927.19
2022-12-11T19:39:44.143Z,100920.34
2022-12-11T19:42:51.376Z,100926.38
2022-12-11T19:45:56.110Z,100928.94
2022-12-11T19:49:01.836Z,100922.13
2022-12-11T19:52:06.317Z,100930.78
2022-12-11T19:55:13.482Z,100929.94
2022-12-11T19:58:19.383Z,100926.53
2022-12-11T20:01:28.855Z,100926.53
2022-12-11T20:04:33.655Z,100918.81
2022-12-11T20:07:38.758Z,100909.34
2022-12-11T20:10:43.476Z,100907.69
2022-12-11T20:13:49.156Z,100904.25
2022-12-11T20:17:13.908Z,100899.13
2022-12-11T20:20:19.176Z,100909.47
2022-12-11T20:23:23.612Z,100906.06
2022-12-11T20:26:29.605Z,100907.72
2022-12-11T20:29:34.028Z,100907.75
2022-12-11T20:32:39.037Z,100907.75
2022-12-11T20:35:44.147Z,100907.75
2022-12-11T20:38:48.891Z,100911.19
2022-12-11T20:41:53.411Z,100904.34
2022-12-11T20:44:57.681Z,100912.00
2022-12-11T20:48:02.132Z,100912.84
2022-12-11T20:51:09.027Z,100919.69
2022-12-11T20:54:13.845Z,100915.34
2022-12-11T20:57:18.209Z,100907.59
2022-12-11T21:00:22.566Z,100906.72
2022-12-11T21:03:26.922Z,100904.16
2022-12-11T21:06:34.777Z,100913.56
2022-12-11T21:09:40.045Z,100911.81
2022-12-11T21:12:44.550Z,100910.13
2022-12-11T21:15:52.550Z,100904.91
2022-12-11T21:18:58.122Z,100911.81
2022-12-11T21:22:03.435Z,100907.50
2022-12-11T21:25:08.495Z,100915.22
2022-12-11T21:28:13.395Z,100910.94
2022-12-11T21:31:19.858Z,100912.69
2022-12-11T21:34:25.722Z,100914.38
2022-12-11T21:37:30.569Z,100904.13
2022-12-11T21:40:35.705Z,100900.69
2022-12-11T21:44:03.269Z,100903.28
2022-12-11T21:47:06.233Z,100907.63
2022-12-11T21:50:11.251Z,100917.94
2022-12-11T21:53:16.030Z,100915.38
2022-12-11T21:56:23.240Z,100914.59
2022-12-11T21:59:28.647Z,100911.13
2022-12-11T22:02:39.047Z,100910.28
2022-12-11T22:05:45.089Z,100905.16
2022-12-11T22:08:49.978Z,100905.97
2022-12-11T22:11:58.348Z,100903.44
2022-12-11T22:15:04.311Z,100910.31
2022-12-11T22:18:09.265Z,100903.44
2022-12-11T22:21:15.178Z,100911.19
2022-12-11T22:24:21.698Z,100910.34
2022-12-11T22:27:26.259Z,100918.94
2022-12-11T22:30:30.818Z,100914.63
2022-12-11T22:33:35.507Z,100921.50
2022-12-11T22:36:39.870Z,100923.19
2022-12-11T22:39:44.956Z,100915.47
2022-12-11T22:42:49.543Z,100911.19
2022-12-11T22:45:55.132Z,100904.28
2022-12-11T22:48:59.972Z,100911.13
2022-12-11T22:52:04.754Z,100921.41
2022-12-11T22:55:09.724Z,100921.34
2022-12-11T22:58:20.023Z,100917.91
2022-12-11T23:01:28.218Z,100924.84
2022-12-11T23:04:33.194Z,100940.25
2022-12-11T23:07:38.186Z,100933.34
2022-12-11T23:10:42.569Z,100940.25
2022-12-11T23:13:46.895Z,100949.66
2022-12-11T23:16:51.341Z,100944.53
2022-12-11T23:19:56.027Z,100945.34
2022-12-11T23:23:00.469Z,100941.88
2022-12-11T23:26:08.259Z,100948.69
2022-12-11T23:29:12.740Z,100955.63
2022-12-11T23:32:17.461Z,100948.75
2022-12-11T23:35:21.928Z,100949.59
2022-12-11T23:38:27.292Z,100951.31
2022-12-11T23:41:31.741Z,100941.97
2022-12-11T23:44:36.592Z,100949.63
2022-12-11T23:47:40.967Z,100941.00
2022-12-11T23:50:46.040Z,100947.84
2022-12-11T23:53:51.211Z,100948.75
2022-12-11T23:56:55.830Z,100948.69
